createdAt,value
2018-07-24T00:00:04.276Z,24.90
2018-07-24T00:02:33.152Z,25.10
2018-07-24T00:05:02.060Z,25.00
2018-07-24T00:07:30.963Z,24.90
2018-07-24T00:10:01.605Z,25.00
2018-07-24T00:12:30.611Z,24.90
2018-07-24T00:14:59.541Z,24.60
2018-07-24T00:17:28.432Z,24.70
2018-07-24T00:19:57.333Z,24.80
2018-07-24T00:22:26.251Z,24.90
2018-07-24T00:24:55.180Z,24.90
2018-07-24T00:27:24.102Z,24.90
2018-07-24T00:29:53.024Z,24.30
2018-07-24T00:32:22.035Z,24.50
2018-07-24T00:34:50.953Z,24.70
2018-07-24T00:37:20.013Z,24.70
2018-07-24T00:39:48.964Z,24.70
2018-07-24T00:42:18.007Z,24.60
2018-07-24T00:44:46.999Z,24.60
2018-07-24T00:47:15.977Z,24.30
2018-07-24T00:49:44.849Z,24.10
2018-07-24T00:52:13.835Z,24.50
2018-07-24T00:54:42.724Z,24.30
2018-07-24T00:57:11.729Z,24.40
2018-07-24T00:59:40.612Z,24.30
2018-07-24T01:02:09.647Z,24.30
2018-07-24T01:04:38.548Z,24.20
2018-07-24T01:07:07.736Z,24.20
2018-07-24T01:09:36.677Z,24.40
2018-07-24T01:12:05.540Z,24.30
2018-07-24T01:14:34.440Z,24.20
2018-07-24T01:17:03.292Z,24.20
2018-07-24T01:19:32.184Z,24.10
2018-07-24T01:22:01.058Z,24.20
2018-07-24T01:24:29.972Z,24.30
2018-07-24T01:26:58.805Z,24.10
2018-07-24T01:29:27.728Z,24.10
2018-07-24T01:31:56.591Z,24.10
2018-07-24T01:34:25.584Z,24.00
2018-07-24T01:36:54.521Z,24.00
2018-07-24T01:39:23.480Z,23.90
2018-07-24T01:41:52.376Z,24.00
2018-07-24T01:44:21.331Z,23.90
2018-07-24T01:46:50.213Z,23.90
2018-07-24T01:49:19.140Z,23.90
2018-07-24T01:51:48.110Z,23.90
2018-07-24T01:54:17.085Z,23.90
2018-07-24T01:56:45.974Z,23.80
2018-07-24T01:59:14.908Z,23.80
2018-07-24T02:01:43.806Z,23.80
2018-07-24T02:04:12.878Z,23.70
2018-07-24T02:06:41.781Z,23.70
2018-07-24T02:09:11.516Z,23.60
2018-07-24T02:11:40.709Z,23.50
2018-07-24T02:14:09.830Z,23.60
2018-07-24T02:16:38.724Z,23.60
2018-07-24T02:19:07.628Z,23.50
2018-07-24T02:21:37.463Z,23.50
2018-07-24T02:24:06.472Z,23.50
2018-07-24T02:26:35.372Z,23.50
2018-07-24T02:29:04.316Z,23.50
2018-07-24T02:31:33.221Z,23.40
2018-07-24T02:34:02.077Z,23.40
2018-07-24T02:36:31.037Z,23.10
2018-07-24T02:38:59.912Z,23.10
2018-07-24T02:41:28.846Z,23.20
2018-07-24T02:43:57.736Z,23.30
2018-07-24T02:46:26.651Z,23.30
2018-07-24T02:48:55.523Z,23.10
2018-07-24T02:51:24.464Z,23.00
2018-07-24T02:53:53.500Z,23.00
2018-07-24T02:56:22.484Z,23.10
2018-07-24T02:58:51.413Z,23.20
2018-07-24T03:01:20.374Z,23.20
2018-07-24T03:03:49.362Z,23.20
2018-07-24T03:06:18.365Z,23.20
2018-07-24T03:08:47.506Z,23.10
2018-07-24T03:11:16.431Z,23.10
2018-07-24T03:13:45.353Z,23.10
2018-07-24T03:16:14.430Z,23.00
2018-07-24T03:18:43.344Z,23.00
2018-07-24T03:21:12.231Z,23.00
2018-07-24T03:23:41.305Z,23.00
2018-07-24T03:26:10.187Z,22.90
2018-07-24T03:28:39.120Z,22.90
2018-07-24T03:31:07.992Z,22.90
2018-07-24T03:33:36.896Z,22.80
2018-07-24T03:36:05.776Z,22.90
2018-07-24T03:38:34.677Z,22.80
2018-07-24T03:41:03.638Z,22.80
2018-07-24T03:43:32.564Z,22.80
2018-07-24T03:46:01.505Z,22.80
2018-07-24T03:48:30.465Z,22.80
2018-07-24T03:50:59.369Z,22.70
2018-07-24T03:53:28.326Z,22.70
2018-07-24T03:55:57.184Z,22.70
2018-07-24T03:58:26.065Z,22.60
2018-07-24T04:00:55.013Z,22.60
2018-07-24T04:03:23.929Z,22.60
2018-07-24T04:05:52.857Z,22.70
2018-07-24T04:08:21.800Z,22.70
2018-07-24T04:10:50.779Z,22.70
2018-07-24T04:13:19.641Z,22.80
2018-07-24T04:15:48.528Z,22.80
2018-07-24T04:18:17.384Z,22.70
2018-07-24T04:20:46.297Z,22.70
2018-07-24T04:23:15.169Z,22.70
2018-07-24T04:25:44.085Z,22.80
2018-07-24T04:28:13.026Z,22.80
2018-07-24T04:30:41.923Z,22.80
2018-07-24T04:33:10.787Z,22.80
2018-07-24T04:35:39.689Z,22.80
2018-07-24T04:38:08.548Z,22.80
2018-07-24T04:40:37.545Z,22.90
2018-07-24T04:43:06.477Z,22.80
2018-07-24T04:45:35.404Z,22.90
2018-07-24T04:48:04.420Z,22.90
2018-07-24T04:50:33.416Z,23.00
2018-07-24T04:53:02.422Z,23.80
2018-07-24T04:55:31.346Z,24.20
2018-07-24T04:58:01.067Z,24.50
2018-07-24T05:00:30.032Z,24.30
2018-07-24T05:02:58.944Z,24.70
2018-07-24T05:05:27.889Z,25.20
2018-07-24T05:07:56.780Z,25.10
2018-07-24T05:10:25.699Z,25.70
2018-07-24T05:12:54.616Z,25.70
2018-07-24T05:15:23.501Z,25.60
2018-07-24T05:17:52.401Z,25.70
2018-07-24T05:20:21.300Z,25.40
2018-07-24T05:22:50.320Z,26.00
2018-07-24T05:25:19.208Z,26.70
2018-07-24T05:27:48.347Z,27.60
2018-07-24T05:30:17.328Z,28.00
2018-07-24T05:32:46.604Z,27.50
2018-07-24T05:35:15.700Z,27.70
2018-07-24T05:37:44.616Z,27.80
2018-07-24T05:40:13.565Z,28.40
2018-07-24T05:42:42.468Z,27.90
2018-07-24T05:45:11.363Z,28.20
2018-07-24T05:47:40.247Z,28.10
2018-07-24T05:50:09.268Z,27.90
2018-07-24T05:52:38.149Z,26.60
2018-07-24T05:55:07.137Z,27.60
2018-07-24T05:57:36.075Z,28.00
2018-07-24T06:00:05.964Z,29.50
2018-07-24T06:02:34.908Z,29.00
2018-07-24T06:05:04.011Z,28.00
2018-07-24T06:07:33.013Z,29.40
2018-07-24T06:10:02.069Z,29.10
2018-07-24T06:12:31.061Z,29.90
2018-07-24T06:15:00.162Z,30.40
2018-07-24T06:17:29.184Z,31.50
2018-07-24T06:19:58.027Z,30.10
2018-07-24T06:22:26.884Z,28.80
2018-07-24T06:24:55.773Z,29.10
2018-07-24T06:27:24.628Z,30.60
2018-07-24T06:29:53.485Z,30.40
2018-07-24T06:32:22.397Z,30.60
2018-07-24T06:34:51.267Z,30.50
2018-07-24T06:37:20.181Z,31.20
2018-07-24T06:39:49.033Z,31.70
2018-07-24T06:42:17.999Z,31.40
2018-07-24T06:44:46.849Z,30.10
2018-07-24T06:47:15.737Z,30.60
2018-07-24T06:49:44.600Z,30.60
2018-07-24T06:52:13.520Z,30.70
2018-07-24T06:54:42.388Z,30.70
2018-07-24T06:57:11.921Z,30.70
2018-07-24T06:59:40.785Z,32.20
2018-07-24T07:02:09.702Z,31.40
2018-07-24T07:04:38.568Z,32.40
2018-07-24T07:07:07.515Z,33.00
2018-07-24T07:09:36.404Z,33.70
2018-07-24T07:12:05.400Z,31.90
2018-07-24T07:14:34.426Z,33.00
2018-07-24T07:17:03.402Z,32.90
2018-07-24T07:19:32.402Z,31.80
2018-07-24T07:22:01.468Z,32.20
2018-07-24T07:24:30.497Z,33.40
2018-07-24T07:26:59.456Z,33.60
2018-07-24T07:29:28.353Z,31.10
2018-07-24T07:31:57.258Z,32.60
2018-07-24T07:34:26.153Z,32.00
2018-07-24T07:36:54.993Z,32.40
2018-07-24T07:39:23.885Z,33.70
2018-07-24T07:41:52.773Z,32.80
2018-07-24T07:44:21.726Z,34.50
2018-07-24T07:46:50.616Z,32.70
2018-07-24T07:49:19.514Z,33.80
2018-07-24T07:51:48.416Z,33.20
2018-07-24T07:54:17.320Z,33.50
2018-07-24T07:56:46.192Z,33.10
2018-07-24T07:59:15.103Z,33.60
2018-07-24T08:01:43.968Z,34.20
2018-07-24T08:04:12.885Z,34.20
2018-07-24T08:06:41.788Z,34.90
2018-07-24T08:09:11.691Z,34.70
2018-07-24T08:11:40.681Z,33.40
2018-07-24T08:14:09.560Z,34.50
2018-07-24T08:16:38.496Z,33.90
2018-07-24T08:19:07.416Z,34.10
2018-07-24T08:21:36.446Z,35.60
2018-07-24T08:24:05.489Z,36.70
2018-07-24T08:26:34.516Z,34.50
2018-07-24T08:29:03.717Z,34.50
2018-07-24T08:31:32.832Z,34.00
2018-07-24T08:34:01.789Z,35.30
2018-07-24T08:36:30.922Z,33.80
2018-07-24T08:38:59.917Z,33.80
2018-07-24T08:41:28.871Z,34.80
2018-07-24T08:43:57.783Z,33.50
2018-07-24T08:46:26.872Z,33.40
2018-07-24T08:48:55.777Z,35.90
2018-07-24T08:51:24.755Z,34.50
2018-07-24T08:53:54.028Z,36.40
2018-07-24T08:56:22.631Z,36.10
2018-07-24T08:58:51.571Z,36.20
2018-07-24T09:01:20.444Z,37.40
2018-07-24T09:03:49.520Z,34.60
2018-07-24T09:06:18.406Z,34.40
2018-07-24T09:08:47.392Z,35.10
2018-07-24T09:11:16.265Z,34.80
2018-07-24T09:13:45.176Z,34.10
2018-07-24T09:16:14.029Z,34.50
2018-07-24T09:18:42.922Z,35.50
2018-07-24T09:21:11.776Z,35.40
2018-07-24T09:23:40.652Z,36.60
2018-07-24T09:26:09.520Z,36.50
2018-07-24T09:28:38.400Z,33.90
2018-07-24T09:31:07.348Z,36.10
2018-07-24T09:33:36.245Z,35.80
2018-07-24T09:36:05.376Z,35.70
2018-07-24T09:38:34.316Z,35.80
2018-07-24T09:41:03.257Z,34.80
2018-07-24T09:43:32.241Z,34.90
2018-07-24T09:46:01.172Z,35.50
2018-07-24T09:48:30.122Z,34.90
2018-07-24T09:50:59.013Z,35.80
2018-07-24T09:53:27.940Z,34.40
2018-07-24T09:55:57.048Z,36.10
2018-07-24T09:58:25.941Z,36.00
2018-07-24T10:01:00.005Z,35.90
2018-07-24T10:03:28.919Z,36.30
2018-07-24T10:05:57.872Z,35.20
2018-07-24T10:08:26.778Z,36.60
2018-07-24T10:10:55.720Z,35.80
2018-07-24T10:13:24.646Z,36.70
2018-07-24T10:15:53.504Z,37.60
2018-07-24T10:18:22.368Z,35.70
2018-07-24T10:20:51.320Z,35.00
2018-07-24T10:23:20.234Z,35.60
2018-07-24T10:25:49.196Z,35.50
2018-07-24T10:28:18.080Z,35.40
2018-07-24T10:30:47.016Z,35.30
2018-07-24T10:33:15.892Z,35.40
2018-07-24T10:35:44.811Z,35.40
2018-07-24T10:38:13.684Z,36.40
2018-07-24T10:40:42.700Z,36.40
2018-07-24T10:43:11.746Z,37.30
2018-07-24T10:45:40.577Z,35.30
2018-07-24T10:48:09.462Z,34.50
2018-07-24T10:50:38.377Z,34.00
2018-07-24T10:53:07.625Z,34.10
2018-07-24T10:55:36.504Z,34.80
2018-07-24T10:58:05.519Z,34.90
2018-07-24T11:00:34.472Z,34.50
2018-07-24T11:03:03.525Z,34.80
2018-07-24T11:05:32.572Z,34.70
2018-07-24T11:08:01.613Z,33.40
2018-07-24T11:10:30.629Z,34.10
2018-07-24T11:12:59.595Z,35.20
2018-07-24T11:15:28.473Z,35.50
2018-07-24T11:17:57.392Z,35.40
2018-07-24T11:20:26.292Z,36.90
2018-07-24T11:22:55.333Z,35.80
2018-07-24T11:25:24.152Z,35.00
2018-07-24T11:27:53.101Z,34.20
2018-07-24T11:30:22.009Z,33.60
2018-07-24T11:32:50.991Z,32.80
2018-07-24T11:35:19.925Z,32.60
2018-07-24T11:37:48.881Z,32.60
2018-07-24T11:40:17.924Z,32.10
2018-07-24T11:42:46.792Z,32.60
2018-07-24T11:45:15.704Z,32.40
2018-07-24T11:47:44.580Z,32.40
2018-07-24T11:50:13.492Z,32.10
2018-07-24T11:52:42.409Z,32.10
2018-07-24T11:55:11.406Z,32.30
2018-07-24T11:57:40.330Z,33.00
2018-07-24T12:00:09.273Z,32.90
2018-07-24T12:02:38.132Z,33.00
2018-07-24T12:05:07.184Z,32.90
2018-07-24T12:07:36.085Z,33.40
2018-07-24T12:10:05.540Z,33.50
2018-07-24T12:12:34.497Z,33.30
2018-07-24T12:15:03.475Z,34.20
2018-07-24T12:17:32.361Z,34.80
2018-07-24T12:20:01.260Z,33.70
2018-07-24T12:22:30.187Z,33.70
2018-07-24T12:24:59.152Z,33.40
2018-07-24T12:27:28.077Z,33.20
2018-07-24T12:29:57.057Z,32.30
2018-07-24T12:32:26.025Z,31.80
2018-07-24T12:34:55.042Z,32.20
2018-07-24T12:37:24.051Z,32.80
2018-07-24T12:39:53.036Z,32.90
2018-07-24T12:42:22.077Z,33.00
2018-07-24T12:44:51.040Z,33.20
2018-07-24T12:47:20.108Z,33.40
2018-07-24T12:49:49.089Z,33.60
2018-07-24T12:52:18.083Z,33.70
2018-07-24T12:54:47.145Z,32.40
2018-07-24T12:57:16.226Z,33.30
2018-07-24T12:59:45.198Z,33.10
2018-07-24T13:02:14.196Z,33.40
2018-07-24T13:04:43.218Z,33.40
2018-07-24T13:07:12.167Z,32.70
2018-07-24T13:09:41.166Z,32.80
2018-07-24T13:12:10.230Z,33.20
2018-07-24T13:14:39.239Z,32.80
2018-07-24T13:17:08.273Z,33.40
2018-07-24T13:19:37.335Z,33.30
2018-07-24T13:22:06.409Z,33.90
2018-07-24T13:24:35.451Z,33.50
2018-07-24T13:27:04.588Z,33.30
2018-07-24T13:29:33.565Z,32.90
2018-07-24T13:32:02.714Z,32.60
2018-07-24T13:34:31.641Z,33.30
2018-07-24T13:37:00.645Z,33.70
2018-07-24T13:39:29.727Z,32.70
2018-07-24T13:41:58.758Z,33.70
2018-07-24T13:44:27.823Z,33.70
2018-07-24T13:46:56.848Z,33.60
2018-07-24T13:49:25.884Z,33.90
2018-07-24T13:51:54.940Z,34.30
2018-07-24T13:54:23.919Z,34.50
2018-07-24T13:56:52.900Z,34.40
2018-07-24T13:59:21.864Z,34.50
2018-07-24T14:01:50.765Z,34.10
2018-07-24T14:04:19.750Z,33.40
2018-07-24T14:06:48.750Z,34.10
2018-07-24T14:09:17.753Z,34.50
2018-07-24T14:11:46.659Z,34.20
2018-07-24T14:14:15.693Z,33.70
2018-07-24T14:16:44.577Z,33.70
2018-07-24T14:19:13.485Z,34.10
2018-07-24T14:21:42.420Z,34.70
2018-07-24T14:24:11.503Z,34.50
2018-07-24T14:26:40.415Z,33.60
2018-07-24T14:29:09.349Z,34.10
2018-07-24T14:31:38.260Z,34.60
2018-07-24T14:34:07.244Z,34.50
2018-07-24T14:36:36.141Z,33.60
2018-07-24T14:39:08.299Z,32.80
2018-07-24T14:41:37.232Z,32.70
2018-07-24T14:44:06.228Z,33.50
2018-07-24T14:46:35.211Z,33.20
2018-07-24T14:49:04.156Z,33.50
2018-07-24T14:51:33.112Z,33.50
2018-07-24T14:54:01.972Z,33.70
2018-07-24T14:56:30.936Z,34.10
2018-07-24T14:58:59.872Z,34.20
2018-07-24T15:01:28.765Z,34.20
2018-07-24T15:03:57.674Z,33.50
2018-07-24T15:06:26.851Z,33.20
2018-07-24T15:08:55.821Z,33.80
2018-07-24T15:11:24.818Z,34.30
2018-07-24T15:13:53.720Z,33.60
2018-07-24T15:16:22.658Z,34.10
2018-07-24T15:18:51.548Z,33.70
2018-07-24T15:21:20.607Z,33.90
2018-07-24T15:23:49.532Z,33.50
2018-07-24T15:26:18.510Z,33.40
2018-07-24T15:28:47.468Z,33.80
2018-07-24T15:31:16.776Z,34.00
2018-07-24T15:33:45.731Z,34.10
2018-07-24T15:36:14.640Z,34.10
2018-07-24T15:38:43.529Z,34.30
2018-07-24T15:41:12.473Z,34.10
2018-07-24T15:43:41.408Z,33.90
2018-07-24T15:46:10.324Z,33.70
2018-07-24T15:48:39.332Z,33.70
2018-07-24T15:51:08.220Z,33.80
2018-07-24T15:53:37.168Z,33.40
2018-07-24T15:56:06.140Z,33.40
2018-07-24T15:58:35.162Z,33.60
2018-07-24T16:01:04.129Z,33.20
2018-07-24T16:03:33.052Z,33.40
2018-07-24T16:06:01.983Z,33.50
2018-07-24T16:08:30.908Z,33.80
2018-07-24T16:10:59.869Z,33.70
2018-07-24T16:13:28.780Z,33.80
2018-07-24T16:15:57.795Z,33.80
2018-07-24T16:18:26.656Z,33.50
2018-07-24T16:20:55.542Z,33.60
2018-07-24T16:23:24.484Z,33.40
2018-07-24T16:25:53.356Z,33.70
2018-07-24T16:28:22.273Z,34.10
2018-07-24T16:30:51.228Z,33.90
2018-07-24T16:33:20.240Z,33.70
2018-07-24T16:35:49.227Z,33.50
2018-07-24T16:38:18.173Z,33.40
2018-07-24T16:40:47.118Z,33.30
2018-07-24T16:43:16.052Z,33.20
2018-07-24T16:45:45.012Z,33.20
2018-07-24T16:48:13.938Z,33.40
2018-07-24T16:50:42.873Z,34.00
2018-07-24T16:53:11.786Z,34.10
2018-07-24T16:55:40.845Z,34.20
2018-07-24T16:58:09.725Z,34.10
2018-07-24T17:00:38.636Z,34.30
2018-07-24T17:03:07.551Z,34.40
2018-07-24T17:05:36.456Z,34.20
2018-07-24T17:08:05.356Z,34.30
2018-07-24T17:10:34.297Z,34.30
2018-07-24T17:13:03.207Z,33.80
2018-07-24T17:15:32.162Z,34.00
2018-07-24T17:18:01.103Z,34.10
2018-07-24T17:20:30.008Z,34.10
2018-07-24T17:22:58.951Z,34.20
2018-07-24T17:25:27.864Z,33.70
2018-07-24T17:27:56.767Z,33.40
2018-07-24T17:30:25.672Z,33.00
2018-07-24T17:32:54.612Z,33.60
2018-07-24T17:35:23.553Z,33.50
2018-07-24T17:37:52.488Z,33.70
2018-07-24T17:40:21.453Z,32.90
2018-07-24T17:42:50.391Z,33.30
2018-07-24T17:45:19.299Z,33.60
2018-07-24T17:47:48.251Z,33.60
2018-07-24T17:50:17.142Z,33.70
2018-07-24T17:52:46.060Z,33.90
2018-07-24T17:55:14.928Z,33.70
2018-07-24T17:57:43.828Z,33.70
2018-07-24T18:00:12.760Z,33.10
2018-07-24T18:02:41.668Z,32.70
2018-07-24T18:05:10.591Z,32.70
2018-07-24T18:07:39.517Z,32.70
2018-07-24T18:10:08.478Z,32.60
2018-07-24T18:12:37.453Z,32.40
2018-07-24T18:15:06.420Z,32.60
2018-07-24T18:17:35.345Z,32.50
2018-07-24T18:20:04.695Z,32.50
2018-07-24T18:22:33.656Z,32.60
2018-07-24T18:25:02.577Z,32.40
2018-07-24T18:27:31.453Z,31.90
2018-07-24T18:30:00.408Z,32.50
2018-07-24T18:32:29.296Z,32.80
2018-07-24T18:34:58.233Z,32.20
2018-07-24T18:37:27.108Z,32.40
2018-07-24T18:39:56.036Z,32.90
2018-07-24T18:42:24.949Z,32.70
2018-07-24T18:44:53.860Z,32.60
2018-07-24T18:47:22.780Z,32.50
2018-07-24T18:49:51.717Z,32.20
2018-07-24T18:52:20.652Z,32.50
2018-07-24T18:54:49.623Z,32.30
2018-07-24T18:57:18.500Z,32.50
2018-07-24T18:59:47.451Z,32.60
2018-07-24T19:02:16.354Z,32.20
2018-07-24T19:04:45.268Z,32.00
2018-07-24T19:07:14.177Z,32.00
2018-07-24T19:09:43.104Z,32.00
2018-07-24T19:12:12.044Z,32.10
2018-07-24T19:14:40.931Z,32.00
2018-07-24T19:17:09.873Z,32.00
2018-07-24T19:19:38.804Z,32.10
2018-07-24T19:22:07.744Z,32.00
2018-07-24T19:24:36.656Z,32.00
2018-07-24T19:27:05.588Z,32.00
2018-07-24T19:29:34.499Z,32.00
2018-07-24T19:32:03.562Z,31.80
2018-07-24T19:34:32.444Z,31.70
2018-07-24T19:37:01.365Z,31.50
2018-07-24T19:39:30.228Z,31.50
2018-07-24T19:41:59.144Z,31.40
2018-07-24T19:44:28.013Z,31.40
2018-07-24T19:46:56.908Z,31.30
2018-07-24T19:49:25.883Z,31.30
2018-07-24T19:51:54.809Z,31.20
2018-07-24T19:54:23.733Z,31.10
2018-07-24T19:56:52.641Z,31.10
2018-07-24T19:59:21.568Z,31.00
2018-07-24T20:01:50.468Z,30.90
2018-07-24T20:04:19.372Z,30.70
2018-07-24T20:06:48.256Z,30.70
2018-07-24T20:09:17.209Z,30.60
2018-07-24T20:11:46.081Z,30.60
2018-07-24T20:14:15.021Z,30.60
2018-07-24T20:16:43.896Z,30.50
2018-07-24T20:19:12.841Z,30.30
2018-07-24T20:21:41.721Z,30.20
2018-07-24T20:24:10.642Z,30.00
2018-07-24T20:26:39.561Z,29.90
2018-07-24T20:29:08.512Z,29.70
2018-07-24T20:31:37.435Z,29.60
2018-07-24T20:34:06.409Z,29.60
2018-07-24T20:36:35.385Z,29.60
2018-07-24T20:39:06.549Z,29.50
2018-07-24T20:41:35.608Z,29.60
2018-07-24T20:44:04.660Z,29.40
2018-07-24T20:46:33.596Z,29.40
2018-07-24T20:49:02.740Z,29.30
2018-07-24T20:51:31.669Z,29.20
2018-07-24T20:54:00.575Z,29.20
2018-07-24T20:56:29.621Z,29.10
2018-07-24T20:58:58.536Z,29.20
2018-07-24T21:01:27.456Z,29.20
2018-07-24T21:03:56.331Z,29.10
2018-07-24T21:06:25.242Z,29.00
2018-07-24T21:08:54.156Z,29.00
2018-07-24T21:11:23.063Z,29.00
2018-07-24T21:13:51.931Z,28.90
2018-07-24T21:16:20.890Z,29.00
2018-07-24T21:18:50.260Z,29.10
2018-07-24T21:21:19.168Z,28.40
2018-07-24T21:23:48.048Z,28.40
2018-07-24T21:26:16.973Z,28.60
2018-07-24T21:28:45.879Z,28.30
2018-07-24T21:31:14.826Z,28.40
2018-07-24T21:33:43.700Z,28.40
2018-07-24T21:36:12.636Z,28.40
2018-07-24T21:38:41.541Z,28.20
2018-07-24T21:41:10.424Z,27.90
2018-07-24T21:43:39.357Z,28.00
2018-07-24T21:46:08.364Z,27.80
2018-07-24T21:48:37.288Z,27.60
2018-07-24T21:51:06.200Z,27.40
2018-07-24T21:53:35.389Z,27.20
2018-07-24T21:56:04.315Z,27.70
2018-07-24T21:58:33.252Z,27.90
2018-07-24T22:01:07.384Z,27.60
2018-07-24T22:03:36.277Z,27.30
2018-07-24T22:06:05.200Z,27.20
2018-07-24T22:08:34.316Z,27.20
2018-07-24T22:11:03.211Z,27.10
2018-07-24T22:13:32.108Z,27.20
2018-07-24T22:16:00.985Z,27.30
2018-07-24T22:18:29.884Z,27.30
2018-07-24T22:20:58.762Z,27.30
2018-07-24T22:23:27.693Z,27.30
2018-07-24T22:25:56.579Z,27.30
2018-07-24T22:28:25.460Z,27.30
2018-07-24T22:30:54.336Z,27.70
2018-07-24T22:33:23.277Z,27.50
2018-07-24T22:35:52.153Z,28.10
2018-07-24T22:38:21.051Z,27.90
2018-07-24T22:40:49.912Z,28.40
2018-07-24T22:43:18.828Z,28.50
2018-07-24T22:45:47.678Z,28.60
2018-07-24T22:48:16.581Z,28.30
2018-07-24T22:50:45.468Z,28.40
2018-07-24T22:53:14.376Z,28.60
2018-07-24T22:55:43.255Z,28.60
2018-07-24T22:58:12.181Z,28.00
2018-07-24T23:00:41.058Z,27.30
2018-07-24T23:03:09.945Z,27.90
2018-07-24T23:05:38.803Z,28.20
2018-07-24T23:08:07.704Z,28.00
2018-07-24T23:10:36.725Z,27.90
2018-07-24T23:13:05.753Z,27.20
2018-07-24T23:15:34.684Z,26.70
2018-07-24T23:18:03.568Z,26.40
2018-07-24T23:20:32.453Z,26.20
2018-07-24T23:23:01.364Z,26.30
2018-07-24T23:25:30.344Z,26.40
2018-07-24T23:27:59.300Z,26.70
2018-07-24T23:30:28.252Z,26.40
2018-07-24T23:32:57.234Z,26.60
2018-07-24T23:35:26.219Z,26.50
2018-07-24T23:37:55.266Z,27.00
2018-07-24T23:40:24.253Z,26.00
2018-07-24T23:42:53.200Z,26.10
2018-07-24T23:45:22.240Z,27.00
2018-07-24T23:47:51.774Z,26.50
2018-07-24T23:50:20.769Z,26.40
2018-07-24T23:52:49.728Z,27.20
2018-07-24T23:55:18.704Z,27.20
2018-07-24T23:57:47.560Z,27.00
